createdAt,value
2023-02-25T00:01:57.673Z,99058.34
2023-02-25T00:04:31.514Z,99059.47
2023-02-25T00:06:59.786Z,99056.75
2023-02-25T00:09:28.770Z,99057.56
2023-02-25T00:11:56.977Z,99051.75
2023-02-25T00:14:24.430Z,99053.28
2023-02-25T00:16:56.148Z,99047.13
2023-02-25T00:19:26.019Z,99044.03
2023-02-25T00:21:54.043Z,99042.84
2023-02-25T00:24:21.647Z,99033.97
2023-02-25T00:26:50.376Z,99027.81
2023-02-25T00:29:18.544Z,99028.94
2023-02-25T00:31:47.080Z,99033.94
2023-02-25T00:34:15.859Z,99026.25
2023-02-25T00:36:46.085Z,99021.63
2023-02-25T00:39:13.924Z,99018.53
2023-02-25T00:41:41.974Z,99021.25
2023-02-25T00:44:09.602Z,99022.75
2023-02-25T00:46:38.983Z,99017.72
2023-02-25T00:49:06.562Z,99008.94
2023-02-25T00:51:34.552Z,98994.69
2023-02-25T00:54:02.126Z,99002.34
2023-02-25T00:56:30.098Z,98998.53
2023-02-25T00:59:00.285Z,98996.19
2023-02-25T01:01:33.492Z,99000.44
2023-02-25T01:04:01.884Z,98995.81
2023-02-25T01:06:32.561Z,98991.94
2023-02-25T01:09:01.335Z,98986.16
2023-02-25T01:11:32.805Z,98979.19
2023-02-25T01:14:08.111Z,98978.44
2023-02-25T01:16:38.508Z,98979.97
2023-02-25T01:19:12.879Z,98974.56
2023-02-25T01:21:45.669Z,98965.69
2023-02-25T01:24:21.987Z,98969.16
2023-02-25T01:26:53.603Z,98961.47
2023-02-25T01:29:42.162Z,98968.00
2023-02-25T01:32:14.180Z,98961.06
2023-02-25T01:34:42.346Z,98953.75
2023-02-25T01:37:10.436Z,98945.28
2023-02-25T01:39:41.678Z,98933.28
2023-02-25T01:42:17.090Z,98937.53
2023-02-25T01:45:18.720Z,98937.91
2023-02-25T01:47:50.713Z,98953.72
2023-02-25T01:50:22.508Z,98944.09
2023-02-25T01:52:53.433Z,98945.63
2023-02-25T01:55:21.243Z,98947.53
2023-02-25T01:57:50.566Z,98961.81
2023-02-25T02:00:18.963Z,98943.69
2023-02-25T02:02:49.504Z,98938.28
2023-02-25T02:05:17.577Z,98949.06
2023-02-25T02:07:45.426Z,98945.22
2023-02-25T02:10:13.000Z,98941.31
2023-02-25T02:12:44.647Z,98940.53
2023-02-25T02:15:15.842Z,98928.22
2023-02-25T02:18:03.095Z,98918.19
2023-02-25T02:21:18.929Z,98916.66
2023-02-25T02:24:11.371Z,98919.75
2023-02-25T02:26:52.156Z,98903.53
2023-02-25T02:29:50.811Z,98897.78
2023-02-25T02:32:24.620Z,98895.84
2023-02-25T02:34:58.421Z,98898.53
2023-02-25T02:38:12.331Z,98892.03
2023-02-25T02:41:25.217Z,98889.31
2023-02-25T02:44:12.921Z,98882.78
2023-02-25T02:47:09.494Z,98870.47
2023-02-25T02:49:54.035Z,98877.38
2023-02-25T02:52:29.254Z,98872.41
2023-02-25T02:55:22.294Z,98872.78
2023-02-25T02:58:00.714Z,98874.28
2023-02-25T03:00:36.712Z,98871.19
2023-02-25T03:03:22.351Z,98873.50
2023-02-25T03:05:53.369Z,98875.84
2023-02-25T03:08:29.460Z,98872.34
2023-02-25T03:10:57.798Z,98855.38
2023-02-25T03:13:26.545Z,98866.56
2023-02-25T03:15:55.722Z,98862.66
2023-02-25T03:18:29.935Z,98869.66
2023-02-25T03:21:00.705Z,98858.88
2023-02-25T03:23:34.310Z,98866.19
2023-02-25T03:26:31.405Z,98865.03
2023-02-25T03:29:04.508Z,98879.66
2023-02-25T03:31:58.790Z,98879.25
2023-02-25T03:34:39.106Z,98911.25
2023-02-25T03:37:22.733Z,98901.25
2023-02-25T03:39:56.852Z,98887.31
2023-02-25T03:42:32.424Z,98886.56
2023-02-25T03:45:05.579Z,98868.81
2023-02-25T03:47:37.397Z,98860.34
2023-02-25T03:50:23.849Z,98849.56
2023-02-25T03:52:56.071Z,98846.94
2023-02-25T03:55:44.224Z,98856.22
2023-02-25T03:58:12.138Z,98863.63
2023-02-25T04:00:43.060Z,98857.50
2023-02-25T04:03:10.713Z,98850.19
2023-02-25T04:05:39.368Z,98843.63
2023-02-25T04:08:16.038Z,98840.50
2023-02-25T04:10:49.865Z,98836.25
2023-02-25T04:13:20.990Z,98836.63
2023-02-25T04:15:50.817Z,98836.63
2023-02-25T04:18:18.439Z,98842.75
2023-02-25T04:20:46.255Z,98833.59
2023-02-25T04:23:17.037Z,98836.72
2023-02-25T04:25:45.022Z,98829.41
2023-02-25T04:28:12.551Z,98821.72
2023-02-25T04:30:40.542Z,98814.81
2023-02-25T04:33:09.662Z,98813.69
2023-02-25T04:35:37.872Z,98816.03
2023-02-25T04:38:07.388Z,98819.97
2023-02-25T04:40:37.739Z,98805.34
2023-02-25T04:43:05.287Z,98806.13
2023-02-25T04:45:33.113Z,98801.53
2023-02-25T04:48:00.764Z,98793.44
2023-02-25T04:50:28.807Z,98793.09
2023-02-25T04:52:56.370Z,98792.00
2023-02-25T04:55:24.327Z,98774.31
2023-02-25T04:57:51.856Z,98768.56
2023-02-25T05:00:24.375Z,98778.59
2023-02-25T05:02:52.293Z,98776.31
2023-02-25T05:05:20.300Z,98773.25
2023-02-25T05:07:48.222Z,98771.72
2023-02-25T05:10:16.437Z,98754.41
2023-02-25T05:12:44.155Z,98767.84
2023-02-25T05:15:12.817Z,98758.59
2023-02-25T05:17:40.401Z,98760.94
2023-02-25T05:20:12.237Z,98758.63
2023-02-25T05:22:41.584Z,98750.97
2023-02-25T05:25:10.479Z,98749.44
2023-02-25T05:27:38.121Z,98757.16
2023-02-25T05:30:06.946Z,98749.88
2023-02-25T05:32:34.764Z,98752.59
2023-02-25T05:35:02.850Z,98759.50
2023-02-25T05:37:32.511Z,98761.06
2023-02-25T05:40:01.393Z,98756.44
2023-02-25T05:42:29.545Z,98776.09
2023-02-25T05:44:57.392Z,98756.44
2023-02-25T05:47:24.967Z,98773.75
2023-02-25T05:49:52.947Z,98773.31
2023-02-25T05:52:20.641Z,98765.56
2023-02-25T05:54:48.531Z,98770.75
2023-02-25T05:57:16.384Z,98769.78
2023-02-25T05:59:44.332Z,98769.94
2023-02-25T06:02:11.933Z,98772.00
2023-02-25T06:04:39.933Z,98761.31
2023-02-25T06:07:08.151Z,98771.81
2023-02-25T06:09:37.520Z,98776.53
2023-02-25T06:12:05.605Z,98775.38
2023-02-25T06:14:33.529Z,98775.78
2023-02-25T06:17:02.273Z,98780.78
2023-02-25T06:19:30.543Z,98780.44
2023-02-25T06:21:58.198Z,98780.53
2023-02-25T06:24:26.064Z,98780.63
2023-02-25T06:26:53.542Z,98783.47
2023-02-25T06:29:21.354Z,98779.69
2023-02-25T06:31:48.950Z,98784.44
2023-02-25T06:34:16.934Z,98786.81
2023-02-25T06:36:44.676Z,98780.44
2023-02-25T06:39:13.443Z,98778.59
2023-02-25T06:41:41.169Z,98782.53
2023-02-25T06:44:09.317Z,98779.13
2023-02-25T06:46:37.006Z,98784.88
2023-02-25T06:49:04.890Z,98785.63
2023-02-25T06:51:32.758Z,98783.72
2023-02-25T06:54:03.527Z,98782.94
2023-02-25T06:56:31.400Z,98784.84
2023-02-25T06:58:59.577Z,98776.81
2023-02-25T07:01:27.592Z,98777.66
2023-02-25T07:03:55.593Z,98781.13
2023-02-25T07:06:23.384Z,98777.72
2023-02-25T07:08:51.402Z,98780.13
2023-02-25T07:11:18.815Z,98780.56
2023-02-25T07:13:50.388Z,98777.53
2023-02-25T07:16:18.597Z,98783.69
2023-02-25T07:18:47.181Z,98779.75
2023-02-25T07:21:16.124Z,98778.88
2023-02-25T07:23:44.453Z,98772.69
2023-02-25T07:26:13.824Z,98776.63
2023-02-25T07:28:42.083Z,98768.59
2023-02-25T07:31:19.423Z,98772.13
2023-02-25T07:33:48.116Z,98771.38
2023-02-25T07:36:17.162Z,98773.25
2023-02-25T07:38:45.072Z,98768.19
2023-02-25T07:41:15.913Z,98776.66
2023-02-25T07:43:44.346Z,98763.94
2023-02-25T07:46:13.468Z,98768.91
2023-02-25T07:48:41.549Z,98748.81
2023-02-25T07:51:18.620Z,98758.84
2023-02-25T07:53:48.934Z,98735.69
2023-02-25T07:56:18.254Z,98738.72
2023-02-25T07:58:46.605Z,98741.03
2023-02-25T08:01:31.782Z,98735.59
2023-02-25T08:04:06.676Z,98727.84
2023-02-25T08:06:41.087Z,98725.06
2023-02-25T08:09:14.086Z,98724.31
2023-02-25T08:11:41.891Z,98715.38
2023-02-25T08:14:09.877Z,98719.13
2023-02-25T08:16:37.869Z,98708.31
2023-02-25T08:19:06.808Z,98705.22
2023-02-25T08:21:34.494Z,98709.53
2023-02-25T08:24:02.343Z,98710.78
2023-02-25T08:26:29.856Z,98707.31
2023-02-25T08:28:58.354Z,98707.28
2023-02-25T08:31:26.387Z,98710.34
2023-02-25T08:33:55.061Z,98698.41
2023-02-25T08:36:29.381Z,98696.13
2023-02-25T08:39:00.496Z,98693.88
2023-02-25T08:41:29.087Z,98703.28
2023-02-25T08:44:00.544Z,98705.84
2023-02-25T08:46:31.588Z,98700.66
2023-02-25T08:49:00.672Z,98702.78
2023-02-25T08:51:34.162Z,98701.75
2023-02-25T08:54:09.425Z,98700.31
2023-02-25T08:56:38.301Z,98701.91
2023-02-25T08:59:06.281Z,98707.75
2023-02-25T09:01:45.890Z,98695.84
2023-02-25T09:04:15.880Z,98710.47
2023-02-25T09:06:44.586Z,98696.66
2023-02-25T09:09:13.460Z,98690.88
2023-02-25T09:11:42.739Z,98690.88
2023-02-25T09:14:10.877Z,98693.56
2023-02-25T09:16:39.247Z,98693.63
2023-02-25T09:19:07.585Z,98695.16
2023-02-25T09:21:36.301Z,98692.84
2023-02-25T09:24:04.509Z,98688.59
2023-02-25T09:26:32.415Z,98683.56
2023-02-25T09:29:05.619Z,98693.94
2023-02-25T09:31:34.776Z,98687.75
2023-02-25T09:34:09.305Z,98689.66
2023-02-25T09:36:37.366Z,98697.31
2023-02-25T09:39:10.283Z,98696.91
2023-02-25T09:41:55.958Z,98691.13
2023-02-25T09:44:36.551Z,98699.56
2023-02-25T09:47:23.334Z,98703.41
2023-02-25T09:50:02.663Z,98706.47
2023-02-25T09:52:40.018Z,98705.69
2023-02-25T09:55:36.457Z,98710.69
2023-02-25T09:58:46.194Z,98705.66
2023-02-25T10:01:27.470Z,98707.22
2023-02-25T10:04:24.305Z,98710.25
2023-02-25T10:06:53.312Z,98719.50
2023-02-25T10:09:50.683Z,98723.38
2023-02-25T10:12:33.657Z,98735.66
2023-02-25T10:16:04.314Z,98736.44
2023-02-25T10:19:08.602Z,98724.91
2023-02-25T10:21:45.229Z,98719.53
2023-02-25T10:24:47.169Z,98697.97
2023-02-25T10:27:41.617Z,98703.34
2023-02-25T10:30:23.382Z,98677.19
2023-02-25T10:32:51.571Z,98681.75
2023-02-25T10:35:27.599Z,98684.41
2023-02-25T10:37:55.735Z,98683.97
2023-02-25T10:40:29.359Z,98690.88
2023-02-25T10:43:20.252Z,98699.28
2023-02-25T10:45:58.463Z,98692.72
2023-02-25T10:48:26.233Z,98687.66
2023-02-25T10:51:16.150Z,98667.59
2023-02-25T10:53:59.424Z,98659.06
2023-02-25T10:56:47.231Z,98649.38
2023-02-25T10:59:30.040Z,98636.59
2023-02-25T11:02:00.957Z,98618.75
2023-02-25T11:04:37.372Z,98613.25
2023-02-25T11:07:43.550Z,98607.31
2023-02-25T11:10:20.806Z,98599.88
2023-02-25T11:12:54.163Z,98608.56
2023-02-25T11:15:43.675Z,98584.13
2023-02-25T11:18:31.635Z,98587.75
2023-02-25T11:21:09.477Z,98590.22
2023-02-25T11:23:47.028Z,98592.34
2023-02-25T11:26:39.359Z,98595.72
2023-02-25T11:29:23.049Z,98597.94
2023-02-25T11:32:16.121Z,98596.34
2023-02-25T11:34:52.088Z,98590.53
2023-02-25T11:37:45.549Z,98581.63
2023-02-25T11:40:30.454Z,98578.44
2023-02-25T11:43:06.823Z,98586.75
2023-02-25T11:45:39.053Z,98583.50
2023-02-25T11:48:41.215Z,98590.53
2023-02-25T11:51:33.708Z,98610.59
2023-02-25T11:55:12.732Z,98642.78
2023-02-25T11:57:40.340Z,98686.69
2023-02-25T12:00:40.317Z,98715.09
2023-02-25T12:03:36.906Z,98722.25
2023-02-25T12:06:04.286Z,98746.69
2023-02-25T12:09:05.930Z,98725.16
2023-02-25T12:11:54.185Z,98782.63
2023-02-25T12:14:58.823Z,98791.31
2023-02-25T12:17:38.206Z,98799.81
2023-02-25T12:20:50.178Z,98801.75
2023-02-25T12:23:56.554Z,98787.53
2023-02-25T12:27:20.183Z,98794.34
2023-02-25T12:30:08.660Z,98784.97
2023-02-25T12:32:59.580Z,98787.00
2023-02-25T12:36:04.728Z,98786.84
2023-02-25T12:38:53.548Z,98790.19
2023-02-25T12:41:46.934Z,98809.66
2023-02-25T12:44:42.258Z,98806.50
2023-02-25T12:48:02.904Z,98814.91
2023-02-25T12:51:01.951Z,98825.53
2023-02-25T12:53:46.654Z,98830.00
2023-02-25T12:56:33.099Z,98843.28
2023-02-25T12:59:34.905Z,98852.59
2023-02-25T13:02:34.076Z,98870.53
2023-02-25T13:05:48.944Z,98875.66
2023-02-25T13:08:47.547Z,98877.72
2023-02-25T13:12:09.911Z,98886.41
2023-02-25T13:14:36.932Z,98889.31
2023-02-25T13:17:47.194Z,98900.69
2023-02-25T13:20:44.205Z,98890.53
2023-02-25T13:23:51.761Z,98883.88
2023-02-25T13:26:44.700Z,98877.59
2023-02-25T13:29:35.821Z,98877.13
2023-02-25T13:32:50.345Z,98885.13
2023-02-25T13:35:56.531Z,98881.06
2023-02-25T13:38:28.171Z,98884.09
2023-02-25T13:41:55.169Z,98871.94
2023-02-25T13:44:29.251Z,98900.47
2023-02-25T13:47:17.496Z,98907.25
2023-02-25T13:50:06.362Z,98911.19
2023-02-25T13:53:13.850Z,98930.69
2023-02-25T13:56:15.324Z,98948.56
2023-02-25T13:59:12.434Z,98942.31
2023-02-25T14:02:17.211Z,98936.53
2023-02-25T14:05:23.918Z,98945.88
2023-02-25T14:08:23.301Z,98945.56
2023-02-25T14:11:11.917Z,98934.25
2023-02-25T14:14:18.334Z,98916.13
2023-02-25T14:17:22.962Z,98941.72
2023-02-25T14:19:59.440Z,98943.16
2023-02-25T14:22:38.671Z,98944.59
2023-02-25T14:25:34.272Z,98955.56
2023-02-25T14:28:26.838Z,98947.66
2023-02-25T14:31:13.075Z,98956.63
2023-02-25T14:34:28.266Z,98944.09
2023-02-25T14:37:34.830Z,98947.75
2023-02-25T14:40:18.022Z,98950.22
2023-02-25T14:43:15.002Z,98966.13
2023-02-25T14:46:04.479Z,98971.88
2023-02-25T14:49:17.286Z,98974.25
2023-02-25T14:52:53.331Z,98976.09
2023-02-25T14:55:32.635Z,98972.41
2023-02-25T14:58:36.998Z,98996.94
2023-02-25T15:01:38.849Z,99002.06
2023-02-25T15:04:39.357Z,98999.44
2023-02-25T15:07:21.847Z,99004.03
2023-02-25T15:10:26.853Z,98999.31
2023-02-25T15:13:01.046Z,99009.25
2023-02-25T15:16:07.217Z,99010.38
2023-02-25T15:19:20.151Z,98988.56
2023-02-25T15:21:49.804Z,98975.56
2023-02-25T15:24:38.444Z,98968.31
2023-02-25T15:27:36.771Z,98979.44
2023-02-25T15:30:10.086Z,98981.31
2023-02-25T15:32:51.199Z,98990.13
2023-02-25T15:35:35.651Z,98985.56
2023-02-25T15:38:18.145Z,98985.19
2023-02-25T15:40:53.011Z,98985.50
2023-02-25T15:43:23.922Z,98978.94
2023-02-25T15:46:23.716Z,98989.22
2023-02-25T15:49:28.667Z,98992.09
2023-02-25T15:52:05.315Z,98990.56
2023-02-25T15:54:32.817Z,99018.28
2023-02-25T15:57:05.002Z,99022.22
2023-02-25T15:59:57.697Z,99016.78
2023-02-25T16:02:33.406Z,99012.91
2023-02-25T16:05:09.932Z,99012.50
2023-02-25T16:07:44.422Z,99005.94
2023-02-25T16:10:47.978Z,99008.19
2023-02-25T16:13:33.058Z,99011.50
2023-02-25T16:16:04.029Z,99008.88
2023-02-25T16:18:45.185Z,99012.09
2023-02-25T16:21:25.468Z,99001.88
2023-02-25T16:23:54.894Z,99000.81
2023-02-25T16:26:50.141Z,99005.31
2023-02-25T16:29:20.600Z,99007.97
2023-02-25T16:32:20.242Z,99011.06
2023-02-25T16:35:03.910Z,99019.16
2023-02-25T16:37:43.465Z,99015.47
2023-02-25T16:40:36.907Z,99026.25
2023-02-25T16:43:05.746Z,99023.47
2023-02-25T16:45:54.942Z,99021.25
2023-02-25T16:48:32.105Z,99026.31
2023-02-25T16:51:11.265Z,99037.00
2023-02-25T16:53:48.005Z,99033.22
2023-02-25T16:56:23.608Z,99035.53
2023-02-25T16:59:20.125Z,99035.34
2023-02-25T17:02:01.796Z,99022.69
2023-02-25T17:05:12.409Z,99016.94
2023-02-25T17:08:05.963Z,99008.50
2023-02-25T17:10:43.821Z,99031.50
2023-02-25T17:13:21.760Z,99030.09
2023-02-25T17:15:51.072Z,99027.34
2023-02-25T17:18:33.151Z,99010.31
2023-02-25T17:21:35.866Z,98990.19
2023-02-25T17:24:11.960Z,98972.13
2023-02-25T17:26:49.489Z,98963.19
2023-02-25T17:29:18.504Z,98956.63
2023-02-25T17:31:55.149Z,98958.97
2023-02-25T17:34:35.805Z,98966.78
2023-02-25T17:37:08.062Z,98968.22
2023-02-25T17:39:36.612Z,98977.94
2023-02-25T17:42:32.706Z,98978.22
2023-02-25T17:45:03.707Z,98984.25
2023-02-25T17:47:35.642Z,98991.22
2023-02-25T17:50:31.902Z,98995.19
2023-02-25T17:53:00.314Z,98997.94
2023-02-25T17:55:37.419Z,98997.66
2023-02-25T17:58:05.272Z,98997.75
2023-02-25T18:00:36.101Z,98997.50
2023-02-25T18:03:12.153Z,99003.97
2023-02-25T18:05:55.057Z,99011.28
2023-02-25T18:08:26.395Z,99004.81
2023-02-25T18:11:21.072Z,99002.31
2023-02-25T18:13:48.746Z,99003.94
2023-02-25T18:16:38.936Z,98993.00
2023-02-25T18:19:35.743Z,98986.22
2023-02-25T18:22:24.609Z,98987.22
2023-02-25T18:24:59.205Z,98994.13
2023-02-25T18:27:33.196Z,98983.72
2023-02-25T18:30:18.385Z,98980.16
2023-02-25T18:32:47.426Z,98988.81
2023-02-25T18:35:16.140Z,98992.78
2023-02-25T18:37:47.614Z,98990.44
2023-02-25T18:40:50.116Z,98993.88
2023-02-25T18:43:21.216Z,98994.31
2023-02-25T18:45:49.997Z,98998.69
2023-02-25T18:48:17.829Z,98999.97
2023-02-25T18:50:45.573Z,99005.41
2023-02-25T18:53:23.505Z,98995.66
2023-02-25T18:55:53.133Z,99008.97
2023-02-25T18:58:22.008Z,99006.75
2023-02-25T19:00:57.325Z,98992.47
2023-02-25T19:03:43.831Z,99002.38
2023-02-25T19:06:11.466Z,99017.56
2023-02-25T19:08:39.245Z,99014.88
2023-02-25T19:11:24.631Z,99017.84
2023-02-25T19:13:53.129Z,99005.81
2023-02-25T19:16:21.181Z,98992.81
2023-02-25T19:18:49.332Z,98997.31
2023-02-25T19:21:27.002Z,99010.09
2023-02-25T19:23:55.852Z,99002.63
2023-02-25T19:26:23.787Z,99005.19
2023-02-25T19:28:52.233Z,99001.56
2023-02-25T19:31:21.011Z,99003.41
2023-02-25T19:33:49.213Z,99016.56
2023-02-25T19:36:16.697Z,99003.66
2023-02-25T19:38:44.533Z,98987.84
2023-02-25T19:41:14.414Z,98992.91
2023-02-25T19:43:42.454Z,99001.03
2023-02-25T19:46:10.423Z,99009.53
2023-02-25T19:48:38.428Z,99010.03
2023-02-25T19:51:08.813Z,99015.16
2023-02-25T19:53:38.659Z,99004.41
2023-02-25T19:56:08.124Z,99006.75
2023-02-25T19:58:36.005Z,99019.50
2023-02-25T20:01:06.479Z,99023.16
2023-02-25T20:03:36.344Z,99020.50
2023-02-25T20:06:13.669Z,99016.69
2023-02-25T20:08:42.765Z,99008.91
2023-02-25T20:11:12.094Z,99027.41
2023-02-25T20:13:40.033Z,99031.25
2023-02-25T20:16:09.346Z,99018.53
2023-02-25T20:18:37.814Z,99011.94
2023-02-25T20:21:06.253Z,99028.31
2023-02-25T20:23:34.434Z,99036.94
2023-02-25T20:26:15.453Z,99036.69
2023-02-25T20:28:43.802Z,99043.00
2023-02-25T20:31:20.466Z,99030.69
2023-02-25T20:33:56.182Z,99035.09
2023-02-25T20:36:31.894Z,99038.72
2023-02-25T20:39:23.905Z,99035.06
2023-02-25T20:41:51.688Z,99021.41
2023-02-25T20:44:19.805Z,99032.31
2023-02-25T20:46:47.661Z,99048.22
2023-02-25T20:49:19.178Z,99044.44
2023-02-25T20:51:48.903Z,99037.47
2023-02-25T20:54:18.627Z,99049.25
2023-02-25T20:56:47.769Z,99048.72
2023-02-25T20:59:16.796Z,99042.16
2023-02-25T21:01:45.900Z,99029.00
2023-02-25T21:04:13.742Z,99024.72
2023-02-25T21:06:41.376Z,99031.06
2023-02-25T21:09:09.381Z,99028.06
2023-02-25T21:11:36.986Z,99021.06
2023-02-25T21:14:09.190Z,99026.06
2023-02-25T21:16:38.697Z,99022.31
2023-02-25T21:19:07.671Z,99024.41
2023-02-25T21:21:37.405Z,99028.63
2023-02-25T21:24:10.403Z,99020.56
2023-02-25T21:26:41.046Z,99019.47
2023-02-25T21:29:10.704Z,99022.47
2023-02-25T21:31:39.506Z,99020.59
2023-02-25T21:34:09.275Z,99013.06
2023-02-25T21:36:38.108Z,99023.97
2023-02-25T21:39:07.058Z,99030.50
2023-02-25T21:41:36.792Z,99032.84
2023-02-25T21:44:05.107Z,99032.16
2023-02-25T21:46:39.313Z,99027.72
2023-02-25T21:49:07.705Z,99024.63
2023-02-25T21:51:35.538Z,99034.25
2023-02-25T21:54:03.939Z,99027.28
2023-02-25T21:56:32.406Z,99037.59
2023-02-25T21:59:05.429Z,99024.72
2023-02-25T22:02:28.538Z,99037.44
2023-02-25T22:04:56.479Z,99023.69
2023-02-25T22:07:24.075Z,99026.78
2023-02-25T22:09:52.866Z,99017.34
2023-02-25T22:12:20.579Z,99008.16
2023-02-25T22:14:48.531Z,98999.06
2023-02-25T22:17:16.534Z,98999.72
2023-02-25T22:19:44.551Z,98995.06
2023-02-25T22:22:14.119Z,98997.31
2023-02-25T22:24:42.878Z,98985.09
2023-02-25T22:27:10.506Z,98982.78
2023-02-25T22:29:38.566Z,99008.63
2023-02-25T22:32:06.888Z,99030.59
2023-02-25T22:34:35.983Z,99003.88
2023-02-25T22:37:03.629Z,98983.25
2023-02-25T22:39:31.575Z,98997.47
2023-02-25T22:41:59.067Z,98995.06
2023-02-25T22:44:29.914Z,98999.63
2023-02-25T22:46:57.616Z,98948.69
2023-02-25T22:49:25.776Z,98982.09
2023-02-25T22:51:53.670Z,98996.00
2023-02-25T22:54:21.738Z,98966.59
2023-02-25T22:56:49.916Z,98948.09
2023-02-25T22:59:19.000Z,98989.63
2023-02-25T23:01:46.636Z,99004.41
2023-02-25T23:04:14.744Z,99016.94
2023-02-25T23:06:45.020Z,99011.19
2023-02-25T23:09:14.351Z,99017.28
2023-02-25T23:11:44.441Z,99030.69
2023-02-25T23:14:13.405Z,99008.31
2023-02-25T23:16:46.096Z,99011.41
2023-02-25T23:19:18.895Z,98993.44
2023-02-25T23:21:47.768Z,98973.38
2023-02-25T23:24:19.530Z,98982.78
2023-02-25T23:26:50.754Z,98977.13
2023-02-25T23:29:18.802Z,98979.56
2023-02-25T23:31:48.258Z,98962.72
2023-02-25T23:34:23.413Z,98965.50
2023-02-25T23:36:54.557Z,98964.38
2023-02-25T23:39:23.017Z,98982.78
2023-02-25T23:41:50.822Z,98986.53
2023-02-25T23:44:18.782Z,98986.63
2023-02-25T23:46:46.379Z,98977.13
2023-02-25T23:49:16.650Z,98974.34
2023-02-25T23:51:47.194Z,98984.53
2023-02-25T23:54:21.652Z,98981.13
2023-02-25T23:56:50.457Z,98974.34
2023-02-25T23:59:18.666Z,98966.34
